createdAt,value
2022-10-19T00:01:23.155Z,3.50
2022-10-19T00:03:54.522Z,3.38
2022-10-19T00:06:26.489Z,3.67
2022-10-19T00:08:59.141Z,3.78
2022-10-19T00:11:28.097Z,3.60
2022-10-19T00:13:57.819Z,4.97
2022-10-19T00:16:29.885Z,5.18
2022-10-19T00:18:59.128Z,3.95
2022-10-19T00:21:27.676Z,4.45
2022-10-19T00:23:55.344Z,4.35
2022-10-19T00:26:22.937Z,3.80
2022-10-19T00:28:54.020Z,3.83
2022-10-19T00:31:21.442Z,4.05
2022-10-19T00:33:48.997Z,3.72
2022-10-19T00:36:24.990Z,3.90
2022-10-19T00:38:53.568Z,4.00
2022-10-19T00:41:24.448Z,4.22
2022-10-19T00:44:06.866Z,4.07
2022-10-19T00:46:39.667Z,4.43
2022-10-19T00:49:19.989Z,4.20
2022-10-19T00:51:53.704Z,4.70
2022-10-19T00:54:22.526Z,4.22
2022-10-19T00:56:53.364Z,4.22
2022-10-19T00:59:25.102Z,4.27
2022-10-19T01:04:24.545Z,4.80
2022-10-19T01:06:54.126Z,4.30
2022-10-19T01:09:25.121Z,4.30
2022-10-19T01:12:23.414Z,4.72
2022-10-19T01:15:20.412Z,4.97
2022-10-19T01:17:58.255Z,4.82
2022-10-19T01:20:47.238Z,5.05
2022-10-19T01:23:34.687Z,4.60
2022-10-19T01:26:44.787Z,5.10
2022-10-19T01:29:49.907Z,5.30
2022-10-19T01:32:34.997Z,4.90
2022-10-19T01:35:28.608Z,4.93
2022-10-19T01:38:19.494Z,5.78
2022-10-19T01:41:11.256Z,5.47
2022-10-19T01:44:19.105Z,4.93
2022-10-19T01:47:06.085Z,5.22
2022-10-19T01:49:47.032Z,4.97
2022-10-19T01:52:20.728Z,5.27
2022-10-19T01:54:53.733Z,4.82
2022-10-19T01:57:32.479Z,4.88
2022-10-19T02:00:07.210Z,4.68
2022-10-19T02:02:46.634Z,4.68
2022-10-19T02:05:18.847Z,4.95
2022-10-19T02:07:55.879Z,5.00
2022-10-19T02:10:25.631Z,4.63
2022-10-19T02:12:56.385Z,4.03
2022-10-19T02:15:29.042Z,4.90
2022-10-19T02:18:00.403Z,4.63
2022-10-19T02:20:29.152Z,4.70
2022-10-19T02:22:56.795Z,4.70
2022-10-19T02:25:25.379Z,4.80
2022-10-19T02:27:53.215Z,4.65
2022-10-19T02:30:22.245Z,5.00
2022-10-19T02:32:51.030Z,5.00
2022-10-19T02:35:18.761Z,4.78
2022-10-19T02:37:46.441Z,4.57
2022-10-19T02:40:14.491Z,3.72
2022-10-19T02:42:56.736Z,3.72
2022-10-19T02:45:30.875Z,3.97
2022-10-19T02:48:09.701Z,3.88
2022-10-19T02:50:38.073Z,3.58
2022-10-19T02:53:05.538Z,3.38
2022-10-19T02:55:33.066Z,3.10
2022-10-19T02:58:00.449Z,2.83
2022-10-19T03:00:27.803Z,2.83
2022-10-19T03:02:55.188Z,2.97
2022-10-19T03:05:22.516Z,3.47
2022-10-19T03:07:50.028Z,3.85
2022-10-19T03:10:17.485Z,4.10
2022-10-19T03:12:44.812Z,3.75
2022-10-19T03:15:17.338Z,3.83
2022-10-19T03:17:45.148Z,4.22
2022-10-19T03:20:12.526Z,3.78
2022-10-19T03:22:39.952Z,3.97
2022-10-19T03:25:54.996Z,4.10
2022-10-19T03:28:33.238Z,3.97
2022-10-19T03:31:01.194Z,4.05
2022-10-19T03:33:29.049Z,4.20
2022-10-19T03:36:19.838Z,4.78
2022-10-19T03:38:53.478Z,4.97
2022-10-19T03:41:24.368Z,4.22
2022-10-19T03:43:51.903Z,4.57
2022-10-19T03:46:20.434Z,3.83
2022-10-19T03:48:48.331Z,4.30
2022-10-19T03:51:21.967Z,5.07
2022-10-19T03:53:54.971Z,4.70
2022-10-19T03:56:25.127Z,4.38
2022-10-19T03:58:55.158Z,4.68
2022-10-19T04:01:27.095Z,4.72
2022-10-19T04:03:58.605Z,4.70
2022-10-19T04:06:30.859Z,4.90
2022-10-19T04:08:59.342Z,5.38
2022-10-19T04:11:30.144Z,5.20
2022-10-19T04:13:59.297Z,5.20
2022-10-19T04:16:30.545Z,4.72
2022-10-19T04:18:58.651Z,5.60
2022-10-19T04:21:30.819Z,5.05
2022-10-19T04:24:09.004Z,4.82
2022-10-19T04:26:46.014Z,5.20
2022-10-19T04:29:14.792Z,4.85
2022-10-19T04:31:42.404Z,5.40
2022-10-19T04:34:09.761Z,4.45
2022-10-19T04:36:37.969Z,5.10
2022-10-19T04:39:07.009Z,5.35
2022-10-19T04:41:35.177Z,5.32
2022-10-19T04:44:06.570Z,5.22
2022-10-19T04:46:34.579Z,6.03
2022-10-19T04:49:04.132Z,5.93
2022-10-19T04:51:31.562Z,5.85
2022-10-19T04:53:59.833Z,5.50
2022-10-19T04:56:28.128Z,5.25
2022-10-19T04:58:57.556Z,5.78
2022-10-19T05:01:27.721Z,5.68
2022-10-19T05:04:00.988Z,5.38
2022-10-19T05:06:30.599Z,5.30
2022-10-19T05:08:58.709Z,5.43
2022-10-19T05:11:26.712Z,5.13
2022-10-19T05:13:54.349Z,5.38
2022-10-19T05:16:23.921Z,4.60
2022-10-19T05:18:59.701Z,4.70
2022-10-19T05:21:29.248Z,4.57
2022-10-19T05:23:57.916Z,4.22
2022-10-19T05:26:27.803Z,4.55
2022-10-19T05:29:01.373Z,4.35
2022-10-19T05:31:32.616Z,4.38
2022-10-19T05:34:01.125Z,4.57
2022-10-19T05:36:34.383Z,5.13
2022-10-19T05:39:13.201Z,5.00
2022-10-19T05:41:44.510Z,5.70
2022-10-19T05:44:20.941Z,6.05
2022-10-19T05:46:50.881Z,5.65
2022-10-19T05:49:21.541Z,5.25
2022-10-19T05:51:50.083Z,5.30
2022-10-19T05:54:18.300Z,5.07
2022-10-19T05:56:46.177Z,5.80
2022-10-19T05:59:18.200Z,6.35
2022-10-19T06:01:46.925Z,5.78
2022-10-19T06:04:15.016Z,8.48
2022-10-19T06:06:43.099Z,11.10
2022-10-19T06:09:10.975Z,7.50
2022-10-19T06:11:42.149Z,8.90
2022-10-19T06:14:15.112Z,8.75
2022-10-19T06:16:42.872Z,7.75
2022-10-19T06:19:10.202Z,7.35
2022-10-19T06:21:39.614Z,7.85
2022-10-19T06:24:11.817Z,7.78
2022-10-19T06:26:39.543Z,7.30
2022-10-19T06:29:07.604Z,6.82
2022-10-19T06:31:36.504Z,6.70
2022-10-19T06:34:04.986Z,7.22
2022-10-19T06:36:32.993Z,6.95
2022-10-19T06:39:01.946Z,6.28
2022-10-19T06:41:31.291Z,6.47
2022-10-19T06:44:12.701Z,6.47
2022-10-19T06:46:40.129Z,6.20
2022-10-19T06:49:07.477Z,7.40
2022-10-19T06:51:34.822Z,8.07
2022-10-19T06:54:03.037Z,9.43
2022-10-19T06:56:30.416Z,8.77
2022-10-19T06:58:58.273Z,9.43
2022-10-19T07:01:25.922Z,11.20
2022-10-19T07:03:54.026Z,11.48
2022-10-19T07:06:23.016Z,11.55
2022-10-19T07:08:50.519Z,11.07
2022-10-19T07:11:20.849Z,13.13
2022-10-19T07:13:48.264Z,11.98
2022-10-19T07:16:21.159Z,14.30
2022-10-19T07:18:52.123Z,12.43
2022-10-19T07:21:22.941Z,13.70
2022-10-19T07:23:50.631Z,12.20
2022-10-19T07:26:28.278Z,12.77
2022-10-19T07:28:57.373Z,11.70
2022-10-19T07:31:28.938Z,11.25
2022-10-19T07:34:00.089Z,12.10
2022-10-19T07:36:30.636Z,11.00
2022-10-19T07:38:58.143Z,10.77
2022-10-19T07:41:26.498Z,10.60
2022-10-19T07:43:54.439Z,10.10
2022-10-19T07:46:25.646Z,9.68
2022-10-19T07:48:53.778Z,9.88
2022-10-19T07:51:22.616Z,9.88
2022-10-19T07:53:50.099Z,9.27
2022-10-19T07:56:24.236Z,9.20
2022-10-19T07:58:55.164Z,9.90
2022-10-19T08:01:40.876Z,9.07
2022-10-19T08:06:55.693Z,9.32
2022-10-19T08:09:50.952Z,9.35
2022-10-19T08:12:14.798Z,9.30
2022-10-19T08:14:42.915Z,8.90
2022-10-19T08:17:16.725Z,8.82
2022-10-19T08:19:46.901Z,9.05
2022-10-19T08:22:15.161Z,8.35
2022-10-19T08:24:42.514Z,8.10
2022-10-19T08:27:09.885Z,8.23
2022-10-19T08:29:37.272Z,7.07
2022-10-19T08:32:04.957Z,6.75
2022-10-19T08:34:33.229Z,6.30
2022-10-19T08:37:10.180Z,6.88
2022-10-19T08:39:47.593Z,6.65
2022-10-19T08:42:25.391Z,6.25
2022-10-19T08:45:28.502Z,6.13
2022-10-19T08:48:37.986Z,6.25
2022-10-19T08:51:09.197Z,6.07
2022-10-19T08:53:45.436Z,6.15
2022-10-19T08:56:51.157Z,5.43
2022-10-19T08:59:42.037Z,4.85
2022-10-19T09:02:48.071Z,4.93
2022-10-19T09:05:38.005Z,5.35
2022-10-19T09:08:05.510Z,3.90
2022-10-19T09:10:40.124Z,3.72
2022-10-19T09:13:29.230Z,3.65
2022-10-19T09:16:05.211Z,3.50
2022-10-19T09:18:35.362Z,4.53
2022-10-19T09:21:33.378Z,3.47
2022-10-19T09:24:36.754Z,3.75
2022-10-19T09:27:05.980Z,3.25
2022-10-19T09:29:47.643Z,3.38
2022-10-19T09:32:24.298Z,2.83
2022-10-19T09:34:56.615Z,3.30
2022-10-19T09:37:26.619Z,3.00
2022-10-19T09:39:56.054Z,1.88
2022-10-19T09:42:33.620Z,2.13
2022-10-19T09:45:29.485Z,1.85
2022-10-19T09:48:04.579Z,2.38
2022-10-19T09:50:44.696Z,2.05
2022-10-19T09:53:21.287Z,1.85
2022-10-19T09:56:06.646Z,2.25
2022-10-19T09:58:35.714Z,1.92
2022-10-19T10:01:03.547Z,2.20
2022-10-19T10:03:40.433Z,1.95
2022-10-19T10:06:15.365Z,1.90
2022-10-19T10:08:58.962Z,1.70
2022-10-19T10:11:41.021Z,1.50
2022-10-19T10:14:28.624Z,1.70
2022-10-19T10:17:02.812Z,1.92
2022-10-19T10:19:33.680Z,2.08
2022-10-19T10:22:03.943Z,1.80
2022-10-19T10:24:33.915Z,2.60
2022-10-19T10:27:05.770Z,2.13
2022-10-19T10:29:35.959Z,1.80
2022-10-19T10:32:16.432Z,2.05
2022-10-19T10:34:58.382Z,1.88
2022-10-19T10:37:41.660Z,2.00
2022-10-19T10:40:31.155Z,2.10
2022-10-19T10:43:16.613Z,2.08
2022-10-19T10:45:52.944Z,2.10
2022-10-19T10:48:37.130Z,2.03
2022-10-19T10:51:20.676Z,1.92
2022-10-19T10:53:48.516Z,1.85
2022-10-19T10:56:28.088Z,1.80
2022-10-19T10:59:10.063Z,2.03
2022-10-19T11:01:49.204Z,1.45
2022-10-19T11:04:25.263Z,1.80
2022-10-19T11:07:04.936Z,2.15
2022-10-19T11:09:43.497Z,1.55
2022-10-19T11:12:19.112Z,1.55
2022-10-19T11:15:02.311Z,1.80
2022-10-19T11:17:37.507Z,1.80
2022-10-19T11:20:13.802Z,1.80
2022-10-19T11:22:56.043Z,1.50
2022-10-19T11:25:49.258Z,1.58
2022-10-19T11:29:24.562Z,1.70
2022-10-19T11:31:55.910Z,1.60
2022-10-19T11:34:49.781Z,2.10
2022-10-19T11:38:19.526Z,1.45
2022-10-19T11:41:22.843Z,1.38
2022-10-19T11:44:20.971Z,2.17
2022-10-19T11:47:00.514Z,1.75
2022-10-19T11:50:10.563Z,1.70
2022-10-19T11:53:09.671Z,1.60
2022-10-19T11:55:40.178Z,1.75
2022-10-19T11:58:34.454Z,1.83
2022-10-19T12:01:12.988Z,1.88
2022-10-19T12:03:58.765Z,1.58
2022-10-19T12:06:59.835Z,1.55
2022-10-19T12:10:08.893Z,1.42
2022-10-19T12:12:47.780Z,1.67
2022-10-19T12:15:38.094Z,1.77
2022-10-19T12:18:19.543Z,1.52
2022-10-19T12:20:53.392Z,1.65
2022-10-19T12:23:34.340Z,1.92
2022-10-19T12:26:08.584Z,1.70
2022-10-19T12:28:43.119Z,1.73
2022-10-19T12:31:12.358Z,2.15
2022-10-19T12:33:52.396Z,2.15
2022-10-19T12:36:40.405Z,1.83
2022-10-19T12:39:45.809Z,1.73
2022-10-19T12:42:29.147Z,1.70
2022-10-19T12:45:25.110Z,2.47
2022-10-19T12:48:18.864Z,1.95
2022-10-19T12:50:58.052Z,2.22
2022-10-19T12:53:32.240Z,1.98
2022-10-19T12:56:26.138Z,1.80
2022-10-19T12:59:01.416Z,2.33
2022-10-19T13:01:34.511Z,1.48
2022-10-19T13:04:21.281Z,1.67
2022-10-19T13:07:16.712Z,1.60
2022-10-19T13:09:47.847Z,1.33
2022-10-19T13:12:19.508Z,1.90
2022-10-19T13:14:55.684Z,1.65
2022-10-19T13:17:38.115Z,1.30
2022-10-19T13:20:14.706Z,1.70
2022-10-19T13:22:51.459Z,1.90
2022-10-19T13:25:33.559Z,2.25
2022-10-19T13:28:06.680Z,2.45
2022-10-19T13:30:38.099Z,2.10
2022-10-19T13:33:32.977Z,2.35
2022-10-19T13:36:00.305Z,2.10
2022-10-19T13:38:43.438Z,3.00
2022-10-19T13:41:27.448Z,2.30
2022-10-19T13:44:15.017Z,1.90
2022-10-19T13:47:07.420Z,1.90
2022-10-19T13:50:13.395Z,2.17
2022-10-19T13:53:18.071Z,2.25
2022-10-19T13:56:35.255Z,2.60
2022-10-19T13:59:39.632Z,2.60
2022-10-19T14:02:50.740Z,2.63
2022-10-19T14:06:06.021Z,2.40
2022-10-19T14:09:19.718Z,2.55
2022-10-19T14:11:54.224Z,2.40
2022-10-19T14:14:27.932Z,3.10
2022-10-19T14:17:04.210Z,2.83
2022-10-19T14:19:50.475Z,3.15
2022-10-19T14:22:33.824Z,3.20
2022-10-19T14:25:17.425Z,3.03
2022-10-19T14:27:58.305Z,3.10
2022-10-19T14:30:33.781Z,2.97
2022-10-19T14:33:07.948Z,3.10
2022-10-19T14:35:44.893Z,3.22
2022-10-19T14:38:43.417Z,3.10
2022-10-19T14:44:38.473Z,2.60
2022-10-19T14:47:30.274Z,3.10
2022-10-19T14:49:57.710Z,2.55
2022-10-19T14:52:38.440Z,2.95
2022-10-19T14:55:17.861Z,2.88
2022-10-19T14:57:50.738Z,2.40
2022-10-19T15:00:21.682Z,2.83
2022-10-19T15:03:09.551Z,3.40
2022-10-19T15:05:46.951Z,3.15
2022-10-19T15:08:37.231Z,2.90
2022-10-19T15:11:07.869Z,3.05
2022-10-19T15:13:47.356Z,2.95
2022-10-19T15:16:49.756Z,3.20
2022-10-19T15:19:30.753Z,2.88
2022-10-19T15:22:23.123Z,3.60
2022-10-19T15:25:07.691Z,3.75
2022-10-19T15:27:42.108Z,3.50
2022-10-19T15:30:18.595Z,3.00
2022-10-19T15:32:50.555Z,3.00
2022-10-19T15:35:31.949Z,3.47
2022-10-19T15:38:09.955Z,3.72
2022-10-19T15:40:43.773Z,3.65
2022-10-19T15:43:38.585Z,3.00
2022-10-19T15:46:28.219Z,3.33
2022-10-19T15:49:19.736Z,3.35
2022-10-19T15:51:48.599Z,3.20
2022-10-19T15:54:19.007Z,3.50
2022-10-19T15:56:51.958Z,3.15
2022-10-19T15:59:21.960Z,3.53
2022-10-19T16:01:53.691Z,3.90
2022-10-19T16:04:23.276Z,4.40
2022-10-19T16:06:50.753Z,4.20
2022-10-19T16:09:21.634Z,4.28
2022-10-19T16:11:50.086Z,4.60
2022-10-19T16:16:50.930Z,4.15
2022-10-19T16:19:18.346Z,3.90
2022-10-19T16:21:49.971Z,3.85
2022-10-19T16:24:17.745Z,3.20
2022-10-19T16:26:45.070Z,3.67
2022-10-19T16:29:12.408Z,3.58
2022-10-19T16:31:39.776Z,5.40
2022-10-19T16:34:07.153Z,5.60
2022-10-19T16:36:34.479Z,5.97
2022-10-19T16:39:02.620Z,5.07
2022-10-19T16:41:30.152Z,5.25
2022-10-19T16:43:57.668Z,3.85
2022-10-19T16:46:26.048Z,3.80
2022-10-19T16:48:53.943Z,3.10
2022-10-19T16:51:27.686Z,3.25
2022-10-19T16:53:57.717Z,3.25
2022-10-19T16:56:29.349Z,3.10
2022-10-19T16:59:04.116Z,3.42
2022-10-19T17:01:35.593Z,3.13
2022-10-19T17:06:30.494Z,3.00
2022-10-19T17:11:46.396Z,3.20
2022-10-19T17:14:13.821Z,3.42
2022-10-19T17:16:41.587Z,3.30
2022-10-19T17:19:11.241Z,3.33
2022-10-19T17:21:39.422Z,3.00
2022-10-19T17:24:14.636Z,2.97
2022-10-19T17:26:47.689Z,3.30
2022-10-19T17:29:15.080Z,2.90
2022-10-19T17:31:45.206Z,3.17
2022-10-19T17:34:12.676Z,3.22
2022-10-19T17:36:46.776Z,3.05
2022-10-19T17:39:19.249Z,3.35
2022-10-19T17:41:50.471Z,3.20
2022-10-19T17:44:21.012Z,3.45
2022-10-19T17:46:49.338Z,3.47
2022-10-19T17:49:17.312Z,3.30
2022-10-19T17:51:44.799Z,2.83
2022-10-19T17:54:14.624Z,3.33
2022-10-19T17:56:45.048Z,3.40
2022-10-19T17:59:13.192Z,3.90
2022-10-19T18:01:40.833Z,3.53
2022-10-19T18:04:08.203Z,3.40
2022-10-19T18:06:37.801Z,3.63
2022-10-19T18:09:09.277Z,3.78
2022-10-19T18:11:44.922Z,4.10
2022-10-19T18:14:13.461Z,3.53
2022-10-19T18:16:45.459Z,3.70
2022-10-19T18:19:16.274Z,4.10
2022-10-19T18:21:47.051Z,4.23
2022-10-19T18:24:19.963Z,3.87
2022-10-19T18:26:50.202Z,4.18
2022-10-19T18:29:25.232Z,3.72
2022-10-19T18:31:53.696Z,3.58
2022-10-19T18:34:26.488Z,3.80
2022-10-19T18:36:54.254Z,3.70
2022-10-19T18:39:22.395Z,3.45
2022-10-19T18:41:54.102Z,3.50
2022-10-19T18:44:26.355Z,3.50
2022-10-19T18:46:57.227Z,3.40
2022-10-19T18:49:25.533Z,3.20
2022-10-19T18:51:56.402Z,3.60
2022-10-19T18:54:26.143Z,3.60
2022-10-19T18:56:54.119Z,3.20
2022-10-19T18:59:21.519Z,3.30
2022-10-19T19:01:48.923Z,3.22
2022-10-19T19:04:16.393Z,2.90
2022-10-19T19:06:43.777Z,3.70
2022-10-19T19:09:12.812Z,3.20
2022-10-19T19:11:41.313Z,3.20
2022-10-19T19:14:16.654Z,3.53
2022-10-19T19:16:45.507Z,3.28
2022-10-19T19:19:16.797Z,3.75
2022-10-19T19:21:45.160Z,3.75
2022-10-19T19:24:16.481Z,3.55
2022-10-19T19:26:49.978Z,3.97
2022-10-19T19:29:19.425Z,3.53
2022-10-19T19:31:48.112Z,3.53
2022-10-19T19:34:15.973Z,3.10
2022-10-19T19:36:48.240Z,3.67
2022-10-19T19:39:20.618Z,3.72
2022-10-19T19:44:18.160Z,3.22
2022-10-19T19:46:46.209Z,3.60
2022-10-19T19:49:14.220Z,3.80
2022-10-19T19:51:41.729Z,4.05
2022-10-19T19:54:09.101Z,3.67
2022-10-19T19:56:37.333Z,3.90
2022-10-19T19:59:04.773Z,3.70
2022-10-19T20:01:32.598Z,3.90
2022-10-19T20:06:33.263Z,3.90
2022-10-19T20:09:00.725Z,4.03
2022-10-19T20:11:29.603Z,3.83
2022-10-19T20:13:57.024Z,3.92
2022-10-19T20:16:29.951Z,3.85
2022-10-19T20:19:08.199Z,4.05
2022-10-19T20:21:36.024Z,4.20
2022-10-19T20:24:03.952Z,4.20
2022-10-19T20:26:46.769Z,4.50
2022-10-19T20:29:14.231Z,4.20
2022-10-19T20:31:44.160Z,4.50
2022-10-19T20:34:13.831Z,4.10
2022-10-19T20:36:43.890Z,4.25
2022-10-19T20:39:11.274Z,4.38
2022-10-19T20:41:38.819Z,4.10
2022-10-19T20:44:06.207Z,4.50
2022-10-19T20:46:33.906Z,4.50
2022-10-19T20:49:01.706Z,4.25
2022-10-19T20:51:33.029Z,4.90
2022-10-19T20:54:03.326Z,5.15
2022-10-19T20:56:35.130Z,4.80
2022-10-19T20:59:16.566Z,4.72
2022-10-19T21:01:45.539Z,4.80
2022-10-19T21:04:15.154Z,4.95
2022-10-19T21:06:50.311Z,5.40
2022-10-19T21:09:22.133Z,5.18
2022-10-19T21:11:51.510Z,4.72
2022-10-19T21:14:28.077Z,5.05
2022-10-19T21:17:00.299Z,4.68
2022-10-19T21:22:03.531Z,5.43
2022-10-19T21:24:35.953Z,4.72
2022-10-19T21:27:07.398Z,5.47
2022-10-19T21:29:39.482Z,5.13
2022-10-19T21:32:06.973Z,5.15
2022-10-19T21:34:34.848Z,5.00
2022-10-19T21:37:02.247Z,5.70
2022-10-19T21:39:29.613Z,5.05
2022-10-19T21:41:57.870Z,6.07
2022-10-19T21:44:25.237Z,5.97
2022-10-19T21:46:52.655Z,5.18
2022-10-19T21:49:20.131Z,4.95
2022-10-19T21:51:53.484Z,5.63
2022-10-19T21:54:29.047Z,5.22
2022-10-19T21:56:58.326Z,5.60
2022-10-19T21:59:25.880Z,5.95
2022-10-19T22:01:57.098Z,5.38
2022-10-19T22:04:24.566Z,6.20
2022-10-19T22:06:51.985Z,6.03
2022-10-19T22:09:21.988Z,5.63
2022-10-19T22:11:49.398Z,6.13
2022-10-19T22:14:17.372Z,5.50
2022-10-19T22:16:45.049Z,6.57
2022-10-19T22:19:13.389Z,5.72
2022-10-19T22:21:41.199Z,5.90
2022-10-19T22:24:14.024Z,5.85
2022-10-19T22:26:46.278Z,6.28
2022-10-19T22:29:13.778Z,6.22
2022-10-19T22:31:42.276Z,6.00
2022-10-19T22:34:15.014Z,6.35
2022-10-19T22:36:43.238Z,6.20
2022-10-19T22:39:11.008Z,6.43
2022-10-19T22:41:38.329Z,6.03
2022-10-19T22:44:06.108Z,6.63
2022-10-19T22:46:33.834Z,6.05
2022-10-19T22:49:01.323Z,6.28
2022-10-19T22:51:28.812Z,5.93
2022-10-19T22:53:56.216Z,6.88
2022-10-19T22:56:23.656Z,6.65
2022-10-19T22:58:51.041Z,6.45
2022-10-19T23:01:19.048Z,7.00
2022-10-19T23:03:46.466Z,7.00
2022-10-19T23:06:15.518Z,6.70
2022-10-19T23:08:44.686Z,7.05
2022-10-19T23:11:13.567Z,6.65
2022-10-19T23:13:41.387Z,6.80
2022-10-19T23:16:09.723Z,6.80
2022-10-19T23:18:40.366Z,6.97
2022-10-19T23:21:14.005Z,6.75
2022-10-19T23:23:42.560Z,6.50
2022-10-19T23:26:17.276Z,6.78
2022-10-19T23:28:48.690Z,6.75
2022-10-19T23:31:26.209Z,6.65
2022-10-19T23:33:54.030Z,7.57
2022-10-19T23:36:28.092Z,7.70
2022-10-19T23:38:57.750Z,6.88
2022-10-19T23:41:25.497Z,7.18
2022-10-19T23:43:52.828Z,7.38
2022-10-19T23:46:20.434Z,7.38
2022-10-19T23:48:47.769Z,7.10
2022-10-19T23:51:19.272Z,7.43
2022-10-19T23:53:50.557Z,7.47
2022-10-19T23:56:25.349Z,7.32
2022-10-19T23:58:53.709Z,7.55
